Time;durP1;ratioP1;P1;durP2;ratioP2;P2;SDS_P1;SDS_P2;PMS_P1;PMS_P2;Temp;Humidity;BMP_temperature;BMP_pressure;BME280_temperature;BME280_humidity;BME280_pressure;Samples;Min_cycle;Max_cycle;Signal;HPM_P1;HPM_P2
2022/01/09 00:01:30;;;;;;;16.52;11.07;;;;;;;;;;5031966;28;20550;-78
2022/01/09 00:03:57;;;;;;;20.38;12.73;;;;;;;;;;5023752;28;20025;-78
2022/01/09 00:06:23;;;;;;;21.85;13.40;;;;;;;;;;5024671;28;20037;-79
2022/01/09 00:08:49;;;;;;;24.80;14.77;;;;;;;;;;5023717;28;20081;-78
2022/01/09 00:11:15;;;;;;;31.02;17.52;;;;;;;;;;5025065;28;20026;-79
2022/01/09 00:13:42;;;;;;;27.33;18.65;;;;;;;;;;5024581;28;20025;-79
2022/01/09 00:16:09;;;;;;;35.10;20.25;;;;;;;;;;5024345;28;20034;-79
2022/01/09 00:18:35;;;;;;;29.95;19.73;;;;;;;;;;5024383;28;20036;-78
2022/01/09 00:21:05;;;;;;;26.10;16.13;;;;;;;;;;5025916;28;20425;-78
2022/01/09 00:23:32;;;;;;;28.95;17.98;;;;;;;;;;5026360;28;20101;-79
2022/01/09 00:25:59;;;;;;;26.10;16.50;;;;;;;;;;5025276;28;20033;-80
2022/01/09 00:28:25;;;;;;;26.67;17.00;;;;;;;;;;5025409;28;20037;-80
2022/01/09 00:30:51;;;;;;;27.15;17.27;;;;;;;;;;5025599;28;20022;-78
2022/01/09 00:33:21;;;;;;;24.40;17.25;;;;;;;;;;5024793;28;20029;-79
2022/01/09 00:35:47;;;;;;;30.10;17.30;;;;;;;;;;5024410;28;20025;-79
2022/01/09 00:38:13;;;;;;;25.58;18.80;;;;;;;;;;5024819;28;20030;-79
2022/01/09 00:40:39;;;;;;;26.40;16.65;;;;;;;;;;5025030;28;20033;-80
2022/01/09 00:43:09;;;;;;;27.58;17.15;;;;;;;;;;5005943;28;20160;-79
2022/01/09 00:45:38;;;;;;;26.73;16.75;;;;;;;;;;5004042;28;20022;-78
2022/01/09 00:48:05;;;;;;;25.20;17.38;;;;;;;;;;5015734;28;20030;-79
2022/01/09 00:50:33;;;;;;;28.20;18.35;;;;;;;;;;5021706;28;20026;-79
2022/01/09 00:52:59;;;;;;;27.25;16.50;;;;;;;;;;5023296;28;20025;-78
2022/01/09 00:55:25;;;;;;;25.65;16.30;;;;;;;;;;5023561;28;20050;-79
2022/01/09 00:57:51;;;;;;;25.65;16.40;;;;;;;;;;5035882;28;20064;-79
2022/01/09 01:00:17;;;;;;;29.73;18.38;;;;;;;;;;5033554;28;20034;-79
2022/01/09 01:02:43;;;;;;;28.10;18.48;;;;;;;;;;5023073;28;20041;-78
2022/01/09 01:05:10;;;;;;;27.90;18.10;;;;;;;;;;5021312;28;20037;-78
2022/01/09 01:07:36;;;;;;;28.95;18.13;;;;;;;;;;5022672;28;20025;-78
2022/01/09 01:10:03;;;;;;;28.77;18.48;;;;;;;;;;5027031;28;20021;-77
2022/01/09 01:12:30;;;;;;;28.85;18.17;;;;;;;;;;5036538;28;20030;-78
2022/01/09 01:14:56;;;;;;;31.15;19.25;;;;;;;;;;5021989;28;20010;-79
2022/01/09 01:17:23;;;;;;;26.13;17.65;;;;;;;;;;5020510;28;20022;-78
2022/01/09 01:19:49;;;;;;;25.88;16.80;;;;;;;;;;5021365;28;20057;-79
2022/01/09 01:22:16;;;;;;;28.48;17.05;;;;;;;;;;5022542;28;20025;-78
2022/01/09 01:24:48;;;;;;;30.00;18.25;;;;;;;;;;5021174;28;20072;-78
2022/01/09 01:27:14;;;;;;;27.63;17.92;;;;;;;;;;5022545;28;20026;-80
2022/01/09 01:29:41;;;;;;;28.77;17.73;;;;;;;;;;5020742;28;20052;-78
2022/01/09 01:32:08;;;;;;;27.70;16.85;;;;;;;;;;5020419;28;20028;-78
2022/01/09 01:34:34;;;;;;;32.28;17.73;;;;;;;;;;5023758;28;20037;-78
2022/01/09 01:37:00;;;;;;;27.15;18.00;;;;;;;;;;5022464;28;20033;-77
2022/01/09 01:39:26;;;;;;;29.00;18.52;;;;;;;;;;5022396;28;20093;-79
2022/01/09 01:41:52;;;;;;;27.45;18.25;;;;;;;;;;5023917;28;20029;-79
2022/01/09 01:44:18;;;;;;;30.50;18.27;;;;;;;;;;5024495;28;20029;-78
2022/01/09 01:46:44;;;;;;;30.50;17.75;;;;;;;;;;5023765;28;20026;-79
2022/01/09 01:49:12;;;;;;;25.27;16.27;;;;;;;;;;5024175;28;20057;-78
2022/01/09 01:51:43;;;;;;;28.38;17.20;;;;;;;;;;5022626;28;20014;-78
2022/01/09 01:54:11;;;;;;;23.88;15.45;;;;;;;;;;5024807;28;20046;-79
2022/01/09 01:56:38;;;;;;;28.98;17.50;;;;;;;;;;5024410;28;20084;-79
2022/01/09 01:59:05;;;;;;;30.77;17.33;;;;;;;;;;5024756;28;20026;-78
2022/01/09 02:01:31;;;;;;;25.10;16.42;;;;;;;;;;5027874;28;20148;-78
2022/01/09 02:03:57;;;;;;;29.25;16.23;;;;;;;;;;5025465;28;20494;-79
2022/01/09 02:06:24;;;;;;;32.15;16.92;;;;;;;;;;5023840;28;20029;-80
2022/01/09 02:08:50;;;;;;;29.83;17.73;;;;;;;;;;5014594;28;20030;-79
2022/01/09 02:11:16;;;;;;;34.15;19.10;;;;;;;;;;5021161;28;20030;-79
2022/01/09 02:13:45;;;;;;;31.33;17.63;;;;;;;;;;5022943;28;20017;-79
2022/01/09 02:16:17;;;;;;;32.20;21.00;;;;;;;;;;5024205;28;20014;-79
2022/01/09 02:18:44;;;;;;;26.75;18.50;;;;;;;;;;5027969;28;20029;-79
2022/01/09 02:21:10;;;;;;;31.35;18.85;;;;;;;;;;5025057;28;20064;-78
2022/01/09 02:23:39;;;;;;;32.72;18.88;;;;;;;;;;5025501;28;20041;-79
2022/01/09 02:26:06;;;;;;;32.13;17.65;;;;;;;;;;5035127;28;20037;-79
2022/01/09 02:28:32;;;;;;;32.10;17.20;;;;;;;;;;5037093;28;20085;-79
2022/01/09 02:30:58;;;;;;;26.40;16.33;;;;;;;;;;5025287;28;20029;-79
2022/01/09 02:33:24;;;;;;;27.38;17.60;;;;;;;;;;5025708;28;20086;-79
2022/01/09 02:35:51;;;;;;;31.60;17.27;;;;;;;;;;5025374;28;20396;-79
2022/01/09 02:38:18;;;;;;;30.05;18.25;;;;;;;;;;5028556;28;20030;-78
2022/01/09 02:40:44;;;;;;;31.60;18.10;;;;;;;;;;5038977;28;20030;-79
2022/01/09 02:43:12;;;;;;;30.35;19.40;;;;;;;;;;5028677;28;20049;-79
2022/01/09 02:45:39;;;;;;;31.40;19.45;;;;;;;;;;5025323;28;20480;-79
2022/01/09 02:48:05;;;;;;;32.72;19.30;;;;;;;;;;5025007;28;20054;-80
2022/01/09 02:50:37;;;;;;;34.28;20.73;;;;;;;;;;5027994;28;20025;-80
2022/01/09 02:53:15;;;;;;;29.08;18.50;;;;;;;;;;5029716;28;20033;-79
2022/01/09 02:55:41;;;;;;;27.98;18.15;;;;;;;;;;5039661;28;20051;-79
2022/01/09 02:58:07;;;;;;;30.00;18.55;;;;;;;;;;5037240;28;20029;-79
2022/01/09 03:00:35;;;;;;;34.92;20.45;;;;;;;;;;5030410;28;20025;-79
2022/01/09 03:03:01;;;;;;;33.63;21.45;;;;;;;;;;5027433;28;20030;-79
2022/01/09 03:05:28;;;;;;;32.60;20.05;;;;;;;;;;5035016;28;20104;-79
2022/01/09 03:07:54;;;;;;;36.42;20.50;;;;;;;;;;5037858;28;20472;-79
2022/01/09 03:10:24;;;;;;;31.80;19.48;;;;;;;;;;5029825;28;20032;-79
2022/01/09 03:12:51;;;;;;;31.15;20.33;;;;;;;;;;5029787;28;20105;-79
2022/01/09 03:15:20;;;;;;;29.60;17.40;;;;;;;;;;5032820;28;20014;-78
2022/01/09 03:17:46;;;;;;;31.55;18.25;;;;;;;;;;5025520;28;20086;-78
2022/01/09 03:20:14;;;;;;;30.67;17.42;;;;;;;;;;5027596;28;20049;-80
2022/01/09 03:22:40;;;;;;;29.10;18.17;;;;;;;;;;5029084;28;20045;-79
2022/01/09 03:25:06;;;;;;;29.60;18.33;;;;;;;;;;5012718;28;20453;-79
2022/01/09 03:27:32;;;;;;;26.38;17.30;;;;;;;;;;5022943;28;20037;-80
2022/01/09 03:29:59;;;;;;;28.38;16.40;;;;;;;;;;5026709;28;20026;-79
2022/01/09 03:32:26;;;;;;;29.67;18.08;;;;;;;;;;5028423;28;20468;-79
2022/01/09 03:34:52;;;;;;;30.40;17.92;;;;;;;;;;5032279;28;20029;-79
2022/01/09 03:37:18;;;;;;;28.98;18.88;;;;;;;;;;5030096;28;20026;-79
2022/01/09 03:39:44;;;;;;;28.00;18.63;;;;;;;;;;5029417;28;20029;-79
2022/01/09 03:42:10;;;;;;;32.80;19.27;;;;;;;;;;5032503;28;20041;-80
2022/01/09 03:44:36;;;;;;;30.33;18.05;;;;;;;;;;5033015;28;20026;-79
2022/01/09 03:47:02;;;;;;;29.38;18.15;;;;;;;;;;5028214;28;20050;-79
2022/01/09 03:49:29;;;;;;;33.85;18.05;;;;;;;;;;5027340;28;20025;-78
2022/01/09 03:51:56;;;;;;;28.85;17.83;;;;;;;;;;5025388;28;20523;-80
2022/01/09 03:54:22;;;;;;;32.95;19.00;;;;;;;;;;5039873;28;20034;-78
2022/01/09 03:56:49;;;;;;;30.83;19.15;;;;;;;;;;5028448;28;20034;-79
2022/01/09 03:59:16;;;;;;;28.60;18.92;;;;;;;;;;5035404;28;20026;-79
2022/01/09 04:01:42;;;;;;;31.05;18.35;;;;;;;;;;5027759;28;20022;-80
2022/01/09 04:04:08;;;;;;;28.70;17.98;;;;;;;;;;5020990;28;20034;-79
2022/01/09 04:06:34;;;;;;;32.67;19.00;;;;;;;;;;5007650;28;20512;-79
2022/01/09 04:09:07;;;;;;;29.65;18.58;;;;;;;;;;5027778;28;20088;-79
2022/01/09 04:11:38;;;;;;;24.35;15.52;;;;;;;;;;5026687;28;20054;-79
2022/01/09 04:14:04;;;;;;;30.45;17.73;;;;;;;;;;5028669;28;20045;-79
2022/01/09 04:16:30;;;;;;;33.30;19.20;;;;;;;;;;5027850;28;20033;-79
2022/01/09 04:18:57;;;;;;;28.98;17.50;;;;;;;;;;5026343;28;20105;-79
2022/01/09 04:21:24;;;;;;;31.52;18.40;;;;;;;;;;5034694;28;20667;-79
2022/01/09 04:23:50;;;;;;;28.58;17.77;;;;;;;;;;5028514;28;20018;-79
2022/01/09 04:26:18;;;;;;;34.05;19.13;;;;;;;;;;5043116;28;20037;-80
2022/01/09 04:28:45;;;;;;;34.30;19.88;;;;;;;;;;5049319;28;20025;-78
2022/01/09 04:31:11;;;;;;;31.77;18.88;;;;;;;;;;5032618;28;20037;-78
2022/01/09 04:33:37;;;;;;;29.42;18.48;;;;;;;;;;5027928;28;20022;-79
2022/01/09 04:36:03;;;;;;;34.97;19.45;;;;;;;;;;5026149;28;20396;-79
2022/01/09 04:38:29;;;;;;;28.92;17.85;;;;;;;;;;5027444;28;20036;-78
2022/01/09 04:40:55;;;;;;;30.85;17.65;;;;;;;;;;5026374;28;20049;-79
2022/01/09 04:43:22;;;;;;;29.13;17.50;;;;;;;;;;5042737;28;20107;-78
2022/01/09 04:45:49;;;;;;;31.63;18.63;;;;;;;;;;5036624;28;20087;-78
2022/01/09 04:48:15;;;;;;;29.40;17.55;;;;;;;;;;5027109;28;20030;-79
2022/01/09 04:50:44;;;;;;;29.23;16.95;;;;;;;;;;5024998;28;20128;-78
2022/01/09 04:53:10;;;;;;;28.15;16.90;;;;;;;;;;5025406;28;20064;-79
2022/01/09 04:55:38;;;;;;;32.70;18.50;;;;;;;;;;5026987;28;20042;-78
2022/01/09 04:58:04;;;;;;;28.35;17.02;;;;;;;;;;5027407;28;20026;-78
2022/01/09 05:00:30;;;;;;;28.77;16.92;;;;;;;;;;5028377;28;20086;-78
2022/01/09 05:02:56;;;;;;;31.08;19.05;;;;;;;;;;5030919;28;20033;-79
2022/01/09 05:05:23;;;;;;;27.70;16.92;;;;;;;;;;5043708;28;20029;-79
2022/01/09 05:07:49;;;;;;;27.10;16.52;;;;;;;;;;5037264;28;20025;-79
2022/01/09 05:10:15;;;;;;;31.52;18.15;;;;;;;;;;5023678;28;20026;-79
2022/01/09 05:12:42;;;;;;;32.65;17.52;;;;;;;;;;5021073;28;20010;-80
2022/01/09 05:15:09;;;;;;;31.70;17.10;;;;;;;;;;5023752;28;20116;-78
2022/01/09 05:17:35;;;;;;;27.80;17.95;;;;;;;;;;5022485;28;20036;-78
2022/01/09 05:20:01;;;;;;;30.20;17.30;;;;;;;;;;5023786;28;20022;-79
2022/01/09 05:22:28;;;;;;;31.48;18.90;;;;;;;;;;5022946;28;20030;-78
2022/01/09 05:24:55;;;;;;;26.23;16.13;;;;;;;;;;5022976;28;20452;-79
2022/01/09 05:27:22;;;;;;;26.88;17.27;;;;;;;;;;5025990;28;20065;-79
2022/01/09 05:29:48;;;;;;;31.67;18.38;;;;;;;;;;5026054;28;20081;-80
2022/01/09 05:32:14;;;;;;;26.98;16.85;;;;;;;;;;5025595;28;20014;-80
2022/01/09 05:34:41;;;;;;;25.98;15.50;;;;;;;;;;5025257;28;20034;-79
2022/01/09 05:37:07;;;;;;;28.17;17.92;;;;;;;;;;5025662;28;20026;-79
2022/01/09 05:39:33;;;;;;;29.45;17.10;;;;;;;;;;5023395;28;20058;-80
2022/01/09 05:42:01;;;;;;;28.85;17.05;;;;;;;;;;5022997;28;20022;-79
2022/01/09 05:44:27;;;;;;;29.67;16.70;;;;;;;;;;5016051;28;20021;-80
2022/01/09 05:46:53;;;;;;;27.65;16.20;;;;;;;;;;5027859;28;20094;-79
2022/01/09 05:49:19;;;;;;;30.30;16.67;;;;;;;;;;5032556;28;20049;-78
2022/01/09 05:51:45;;;;;;;27.67;16.20;;;;;;;;;;5028778;28;20410;-78
2022/01/09 05:54:14;;;;;;;28.77;17.00;;;;;;;;;;5023379;28;20045;-79
2022/01/09 05:56:40;;;;;;;25.50;17.65;;;;;;;;;;5021879;28;20057;-79
2022/01/09 05:59:06;;;;;;;26.20;15.23;;;;;;;;;;5022445;28;20022;-79
2022/01/09 06:01:34;;;;;;;26.48;16.85;;;;;;;;;;5023393;28;20076;-79
2022/01/09 06:04:00;;;;;;;25.38;16.42;;;;;;;;;;5022424;28;20029;-79
2022/01/09 06:06:26;;;;;;;26.30;15.90;;;;;;;;;;5025305;28;20022;-79
2022/01/09 06:08:52;;;;;;;22.02;15.68;;;;;;;;;;5043356;28;20047;-79
2022/01/09 06:11:18;;;;;;;23.65;14.75;;;;;;;;;;5016815;28;20026;-79
2022/01/09 06:13:44;;;;;;;27.05;16.38;;;;;;;;;;5021650;28;20034;-79
2022/01/09 06:16:10;;;;;;;24.90;16.98;;;;;;;;;;5022508;28;20026;-80
2022/01/09 06:18:36;;;;;;;26.88;17.23;;;;;;;;;;5021410;28;20056;-80
2022/01/09 06:21:03;;;;;;;26.85;16.73;;;;;;;;;;5022354;28;20452;-80
2022/01/09 06:23:29;;;;;;;26.15;16.38;;;;;;;;;;5024180;28;20034;-78
2022/01/09 06:25:55;;;;;;;29.98;19.33;;;;;;;;;;5023673;28;20092;-79
2022/01/09 06:28:22;;;;;;;31.13;18.50;;;;;;;;;;5024554;28;20022;-79
2022/01/09 06:30:48;;;;;;;28.08;16.20;;;;;;;;;;5022615;28;20026;-79
2022/01/09 06:33:17;;;;;;;26.90;17.30;;;;;;;;;;5024216;28;20041;-79
2022/01/09 06:35:44;;;;;;;27.00;17.08;;;;;;;;;;5024985;28;20041;-79
2022/01/09 06:38:10;;;;;;;27.42;17.55;;;;;;;;;;5023843;28;20137;-79
2022/01/09 06:40:37;;;;;;;27.48;18.02;;;;;;;;;;5021051;28;20570;-80
2022/01/09 06:43:03;;;;;;;27.77;16.98;;;;;;;;;;5019896;28;20038;-80
2022/01/09 06:45:29;;;;;;;28.52;15.70;;;;;;;;;;5024209;28;20026;-80
2022/01/09 06:47:57;;;;;;;27.25;16.95;;;;;;;;;;5024730;28;20379;-80
2022/01/09 06:50:24;;;;;;;29.60;16.20;;;;;;;;;;5020476;28;20022;-80
2022/01/09 06:52:50;;;;;;;31.40;17.83;;;;;;;;;;5023337;28;20033;-84
2022/01/09 06:55:16;;;;;;;28.38;17.55;;;;;;;;;;5025259;28;20106;-84
2022/01/09 06:57:43;;;;;;;30.80;17.90;;;;;;;;;;5024233;28;20045;-84
2022/01/09 07:00:10;;;;;;;31.33;16.90;;;;;;;;;;5023626;28;20060;-83
2022/01/09 07:02:36;;;;;;;28.98;16.58;;;;;;;;;;5026153;28;20021;-83
2022/01/09 07:05:03;;;;;;;32.85;18.92;;;;;;;;;;5028444;28;20145;-81
2022/01/09 07:07:29;;;;;;;30.95;17.75;;;;;;;;;;5033250;28;20578;-83
2022/01/09 07:09:55;;;;;;;28.75;16.75;;;;;;;;;;5026186;28;20042;-84
2022/01/09 07:12:21;;;;;;;27.90;17.80;;;;;;;;;;5022150;28;20025;-84
2022/01/09 07:14:48;;;;;;;31.92;19.60;;;;;;;;;;5021893;28;20023;-84
2022/01/09 07:17:14;;;;;;;31.05;18.15;;;;;;;;;;5024373;28;20026;-84
2022/01/09 07:19:40;;;;;;;27.80;18.00;;;;;;;;;;5023294;28;20053;-84
2022/01/09 07:22:07;;;;;;;29.98;17.75;;;;;;;;;;5022853;28;20041;-84
2022/01/09 07:24:34;;;;;;;30.45;19.45;;;;;;;;;;5023568;28;20080;-84
2022/01/09 07:27:00;;;;;;;31.83;18.40;;;;;;;;;;5022788;28;20037;-84
2022/01/09 07:29:26;;;;;;;30.27;17.58;;;;;;;;;;5023165;28;20025;-84
2022/01/09 07:31:52;;;;;;;29.48;17.48;;;;;;;;;;5022939;28;20120;-84
2022/01/09 07:34:19;;;;;;;28.45;17.88;;;;;;;;;;5023281;28;20101;-83
2022/01/09 07:36:45;;;;;;;28.15;18.42;;;;;;;;;;5027154;28;20681;-83
2022/01/09 07:39:15;;;;;;;30.25;18.90;;;;;;;;;;5025024;28;20065;-83
2022/01/09 07:41:42;;;;;;;27.35;17.05;;;;;;;;;;5027204;28;20018;-83
2022/01/09 07:44:08;;;;;;;30.50;18.42;;;;;;;;;;5028011;28;20030;-83
2022/01/09 07:46:36;;;;;;;28.02;18.75;;;;;;;;;;5028148;28;20053;-83
2022/01/09 07:49:03;;;;;;;33.72;20.50;;;;;;;;;;5025845;28;20025;-84
2022/01/09 07:51:32;;;;;;;30.60;18.98;;;;;;;;;;5027218;28;20056;-83
2022/01/09 07:53:58;;;;;;;32.15;20.38;;;;;;;;;;5025684;28;20026;-83
2022/01/09 07:56:24;;;;;;;36.20;19.63;;;;;;;;;;5033850;28;20025;-83
2022/01/09 07:58:50;;;;;;;36.00;20.10;;;;;;;;;;5011187;28;20480;-82
2022/01/09 08:01:16;;;;;;;31.13;19.15;;;;;;;;;;5021439;28;20098;-82
2022/01/09 08:03:42;;;;;;;29.75;18.10;;;;;;;;;;5026124;28;20026;-82
2022/01/09 08:06:09;;;;;;;31.70;19.00;;;;;;;;;;5027202;28;20088;-81
2022/01/09 08:08:35;;;;;;;30.73;18.45;;;;;;;;;;5012837;28;20030;-83
2022/01/09 08:11:01;;;;;;;39.42;21.38;;;;;;;;;;5026024;28;20053;-82
2022/01/09 08:13:27;;;;;;;31.20;20.20;;;;;;;;;;5024932;28;20034;-82
2022/01/09 08:15:53;;;;;;;34.50;19.15;;;;;;;;;;5027658;28;20026;-82
2022/01/09 08:18:19;;;;;;;32.50;20.27;;;;;;;;;;5020702;28;20029;-82
2022/01/09 08:20:46;;;;;;;29.05;18.33;;;;;;;;;;5025495;28;20045;-82
2022/01/09 08:23:13;;;;;;;31.08;18.42;;;;;;;;;;5025480;28;20036;-82
2022/01/09 08:25:39;;;;;;;32.83;18.83;;;;;;;;;;5029158;28;20038;-82
2022/01/09 08:28:05;;;;;;;30.33;18.73;;;;;;;;;;5027114;28;20053;-82
2022/01/09 08:30:31;;;;;;;32.70;20.58;;;;;;;;;;5027540;28;20018;-82
2022/01/09 08:32:57;;;;;;;29.10;18.17;;;;;;;;;;5026945;28;20026;-83
2022/01/09 08:35:23;;;;;;;30.67;19.77;;;;;;;;;;5026733;28;20022;-82
2022/01/09 08:37:51;;;;;;;32.60;18.55;;;;;;;;;;5026315;28;20051;-82
2022/01/09 08:40:21;;;;;;;35.97;21.25;;;;;;;;;;5026555;28;20031;-83
2022/01/09 08:42:48;;;;;;;30.20;19.48;;;;;;;;;;5025769;28;20135;-83
2022/01/09 08:45:20;;;;;;;30.33;18.95;;;;;;;;;;5025651;28;20053;-81
2022/01/09 08:47:47;;;;;;;31.50;18.88;;;;;;;;;;5026109;28;20030;-82
2022/01/09 08:50:14;;;;;;;30.98;18.42;;;;;;;;;;5026753;28;20022;-83
2022/01/09 08:52:41;;;;;;;28.80;19.55;;;;;;;;;;5029440;28;20026;-82
2022/01/09 08:55:07;;;;;;;37.72;19.83;;;;;;;;;;5029356;28;20570;-82
2022/01/09 08:57:33;;;;;;;30.10;18.10;;;;;;;;;;5026331;28;20097;-81
2022/01/09 08:59:59;;;;;;;31.15;18.20;;;;;;;;;;5024870;28;20026;-82
2022/01/09 09:02:25;;;;;;;31.02;18.77;;;;;;;;;;5023810;28;20496;-81
2022/01/09 09:04:52;;;;;;;29.25;18.83;;;;;;;;;;5022683;28;20040;-82
2022/01/09 09:07:23;;;;;;;27.58;18.35;;;;;;;;;;5023028;28;20125;-83
2022/01/09 09:09:50;;;;;;;29.27;19.23;;;;;;;;;;5022512;28;20040;-82
2022/01/09 09:12:16;;;;;;;29.52;18.48;;;;;;;;;;5022229;28;20570;-82
2022/01/09 09:14:43;;;;;;;28.02;18.40;;;;;;;;;;5020578;28;20107;-82
2022/01/09 09:17:09;;;;;;;30.65;17.40;;;;;;;;;;5024329;28;20045;-81
2022/01/09 09:19:35;;;;;;;31.52;17.80;;;;;;;;;;5007049;28;20572;-81
2022/01/09 09:22:01;;;;;;;33.78;19.75;;;;;;;;;;5019692;28;20396;-81
2022/01/09 09:24:28;;;;;;;34.53;19.40;;;;;;;;;;5024283;28;20052;-81
2022/01/09 09:26:54;;;;;;;36.13;20.73;;;;;;;;;;5022391;28;20026;-81
2022/01/09 09:29:20;;;;;;;30.83;18.02;;;;;;;;;;5024134;28;20029;-81
2022/01/09 09:31:47;;;;;;;32.88;18.80;;;;;;;;;;5024838;28;20040;-82
2022/01/09 09:34:13;;;;;;;37.08;20.55;;;;;;;;;;5026579;28;20057;-82
2022/01/09 09:36:39;;;;;;;30.70;19.77;;;;;;;;;;5025717;28;20022;-82
2022/01/09 09:39:07;;;;;;;30.60;20.35;;;;;;;;;;5027265;28;20472;-83
2022/01/09 09:41:33;;;;;;;28.00;17.85;;;;;;;;;;5032657;28;20033;-82
2022/01/09 09:43:59;;;;;;;30.83;18.38;;;;;;;;;;5024715;28;20089;-82
2022/01/09 09:46:26;;;;;;;33.65;19.63;;;;;;;;;;5024061;28;20166;-81
2022/01/09 09:48:54;;;;;;;28.63;20.35;;;;;;;;;;5027974;28;20029;-82
2022/01/09 09:51:20;;;;;;;33.25;19.38;;;;;;;;;;5022580;28;20305;-81
2022/01/09 09:53:46;;;;;;;28.80;18.50;;;;;;;;;;5024805;28;20036;-81
2022/01/09 09:56:13;;;;;;;35.83;21.10;;;;;;;;;;5023460;28;20045;-82
2022/01/09 09:58:40;;;;;;;35.30;20.98;;;;;;;;;;5021041;28;20061;-81
2022/01/09 10:01:08;;;;;;;35.33;20.13;;;;;;;;;;5022686;28;20346;-80
2022/01/09 10:03:34;;;;;;;36.38;21.25;;;;;;;;;;5022443;28;20041;-80
2022/01/09 10:06:01;;;;;;;33.80;20.73;;;;;;;;;;5023743;28;20037;-80
2022/01/09 10:08:49;;;;;;;31.30;20.02;;;;;;;;;;5022514;28;20026;-81
2022/01/09 10:11:17;;;;;;;29.60;18.98;;;;;;;;;;5022633;28;20098;-81
2022/01/09 10:13:44;;;;;;;28.10;17.73;;;;;;;;;;5026110;28;20076;-81
2022/01/09 10:16:11;;;;;;;33.38;19.92;;;;;;;;;;5019372;28;20015;-80
2022/01/09 10:18:44;;;;;;;31.23;18.60;;;;;;;;;;5023020;28;20026;-80
2022/01/09 10:21:10;;;;;;;35.63;21.58;;;;;;;;;;5021078;28;20643;-80
2022/01/09 10:23:55;;;;;;;34.80;19.50;;;;;;;;;;5019598;28;20057;-80
2022/01/09 10:26:21;;;;;;;33.70;19.75;;;;;;;;;;5020460;28;20030;-80
2022/01/09 10:28:47;;;;;;;32.20;19.92;;;;;;;;;;5018946;28;20029;-80
2022/01/09 10:31:15;;;;;;;36.33;20.83;;;;;;;;;;5021003;28;20060;-80
2022/01/09 10:33:55;;;;;;;35.03;20.95;;;;;;;;;;5031390;28;20067;-81
2022/01/09 10:36:42;;;;;;;30.55;19.27;;;;;;;;;;5021861;28;20034;-80
2022/01/09 10:39:09;;;;;;;33.80;19.88;;;;;;;;;;5021051;28;20040;-81
2022/01/09 10:41:46;;;;;;;33.42;19.20;;;;;;;;;;5018919;28;20098;-80
2022/01/09 10:44:19;;;;;;;33.08;19.83;;;;;;;;;;5023843;28;20030;-80
2022/01/09 10:46:56;;;;;;;35.10;20.70;;;;;;;;;;5025794;28;20018;-80
2022/01/09 10:49:22;;;;;;;35.42;21.52;;;;;;;;;;5024872;28;20030;-79
2022/01/09 10:51:49;;;;;;;31.60;19.52;;;;;;;;;;5027146;28;20053;-80
2022/01/09 10:54:29;;;;;;;33.60;20.75;;;;;;;;;;5023813;28;20058;-80
2022/01/09 10:57:21;;;;;;;35.42;22.70;;;;;;;;;;5020321;28;20030;-80
2022/01/09 10:59:50;;;;;;;32.13;20.05;;;;;;;;;;5013550;28;20113;-80
2022/01/09 11:02:16;;;;;;;28.98;18.85;;;;;;;;;;5018949;28;20085;-80
2022/01/09 11:04:44;;;;;;;33.00;19.70;;;;;;;;;;5019792;28;20041;-79
2022/01/09 11:07:10;;;;;;;32.97;21.25;;;;;;;;;;5019838;28;20030;-79
2022/01/09 11:09:44;;;;;;;36.92;21.48;;;;;;;;;;5019042;28;20049;-79
2022/01/09 11:12:10;;;;;;;33.75;20.02;;;;;;;;;;5022204;28;20033;-79
2022/01/09 11:14:43;;;;;;;33.63;20.65;;;;;;;;;;5021658;28;20117;-80
2022/01/09 11:17:10;;;;;;;32.80;20.55;;;;;;;;;;5023115;28;20251;-79
2022/01/09 11:19:37;;;;;;;31.25;19.52;;;;;;;;;;5021402;28;20034;-80
2022/01/09 11:22:05;;;;;;;33.30;20.90;;;;;;;;;;5020369;28;20515;-79
2022/01/09 11:24:43;;;;;;;36.88;21.13;;;;;;;;;;5022270;28;20771;-79
2022/01/09 11:27:20;;;;;;;32.97;20.60;;;;;;;;;;5022934;28;20565;-79
2022/01/09 11:29:46;;;;;;;30.33;20.25;;;;;;;;;;5023733;28;20080;-79
2022/01/09 11:32:15;;;;;;;35.35;20.95;;;;;;;;;;5022560;28;20018;-79
2022/01/09 11:34:51;;;;;;;34.85;22.13;;;;;;;;;;5023720;28;20033;-79
2022/01/09 11:37:30;;;;;;;30.30;20.00;;;;;;;;;;5020108;28;20514;-80
2022/01/09 11:39:56;;;;;;;34.00;21.40;;;;;;;;;;5022457;28;20034;-79
2022/01/09 11:42:22;;;;;;;28.98;19.35;;;;;;;;;;5023503;28;20097;-80
2022/01/09 11:44:50;;;;;;;31.10;18.73;;;;;;;;;;5023734;28;20122;-80
2022/01/09 11:47:16;;;;;;;35.97;20.17;;;;;;;;;;5021580;28;20342;-81
2022/01/09 11:49:55;;;;;;;33.08;20.30;;;;;;;;;;5022512;28;20056;-81
2022/01/09 11:52:24;;;;;;;33.50;22.23;;;;;;;;;;5022713;28;20373;-79
2022/01/09 11:54:51;;;;;;;30.88;19.73;;;;;;;;;;5025868;28;20117;-81
2022/01/09 11:57:36;;;;;;;33.03;22.15;;;;;;;;;;5023085;28;20030;-80
2022/01/09 12:00:03;;;;;;;29.42;19.58;;;;;;;;;;5021627;28;20029;-80
2022/01/09 12:02:30;;;;;;;28.75;20.13;;;;;;;;;;5007308;28;20048;-80
2022/01/09 12:04:58;;;;;;;35.08;21.88;;;;;;;;;;5003510;28;20031;-79
2022/01/09 12:07:36;;;;;;;32.65;19.58;;;;;;;;;;5021415;28;20541;-80
2022/01/09 12:10:04;;;;;;;33.72;21.90;;;;;;;;;;5023783;28;20420;-80
2022/01/09 12:12:33;;;;;;;28.83;18.65;;;;;;;;;;5025910;28;20033;-80
2022/01/09 12:15:04;;;;;;;29.38;19.95;;;;;;;;;;5026262;28;20026;-79
2022/01/09 12:17:33;;;;;;;31.83;21.30;;;;;;;;;;5021699;28;20022;-80
2022/01/09 12:20:08;;;;;;;32.60;21.52;;;;;;;;;;5022424;28;20018;-79
2022/01/09 12:22:49;;;;;;;33.25;20.75;;;;;;;;;;5023022;28;20022;-81
2022/01/09 12:25:24;;;;;;;37.47;21.40;;;;;;;;;;5019480;28;20120;-80
2022/01/09 12:27:54;;;;;;;30.02;19.75;;;;;;;;;;5021016;28;20037;-81
2022/01/09 12:30:41;;;;;;;34.55;21.35;;;;;;;;;;5020559;28;20076;-79
2022/01/09 12:33:27;;;;;;;30.70;20.17;;;;;;;;;;5020087;28;20025;-79
2022/01/09 12:36:00;;;;;;;32.28;21.23;;;;;;;;;;5021629;28;20056;-79
2022/01/09 12:38:28;;;;;;;31.33;20.55;;;;;;;;;;5020660;28;20558;-79
2022/01/09 12:41:04;;;;;;;33.90;20.70;;;;;;;;;;5020548;28;20038;-79
2022/01/09 12:43:31;;;;;;;31.38;20.92;;;;;;;;;;5013635;28;20041;-79
2022/01/09 12:45:57;;;;;;;32.78;21.95;;;;;;;;;;5022246;28;20504;-79
2022/01/09 12:48:25;;;;;;;33.03;22.02;;;;;;;;;;5020300;28;20034;-79
2022/01/09 12:50:52;;;;;;;32.47;20.27;;;;;;;;;;5021967;28;20419;-78
2022/01/09 12:53:18;;;;;;;33.88;22.30;;;;;;;;;;5019286;28;20095;-79
2022/01/09 12:56:03;;;;;;;30.45;20.27;;;;;;;;;;5020425;28;20088;-79
2022/01/09 12:58:32;;;;;;;35.10;21.48;;;;;;;;;;5021691;28;20026;-81
2022/01/09 13:00:59;;;;;;;35.38;20.90;;;;;;;;;;5021964;28;20040;-80
2022/01/09 13:03:31;;;;;;;26.65;18.65;;;;;;;;;;5022231;28;20030;-80
2022/01/09 13:09:06;;;;;;;32.45;20.48;;;;;;;;;;5021469;28;20570;-80
2022/01/09 13:11:32;;;;;;;31.80;21.10;;;;;;;;;;5019842;28;20487;-80
2022/01/09 13:13:59;;;;;;;32.90;21.15;;;;;;;;;;5023337;28;20125;-80
2022/01/09 13:16:27;;;;;;;30.08;20.85;;;;;;;;;;5022095;28;20014;-80
2022/01/09 13:18:57;;;;;;;35.80;21.42;;;;;;;;;;5024324;28;20030;-80
2022/01/09 13:21:32;;;;;;;27.92;18.88;;;;;;;;;;5017214;28;20038;-80
2022/01/09 13:23:59;;;;;;;29.48;19.42;;;;;;;;;;5020857;28;20036;-80
2022/01/09 13:26:27;;;;;;;33.58;21.48;;;;;;;;;;5022051;28;20036;-80
2022/01/09 13:28:53;;;;;;;31.85;19.63;;;;;;;;;;5022379;28;20034;-80
2022/01/09 13:31:21;;;;;;;34.10;20.75;;;;;;;;;;5022555;28;20030;-80
2022/01/09 13:33:58;;;;;;;32.10;20.98;;;;;;;;;;5012089;28;20053;-79
2022/01/09 13:36:30;;;;;;;34.03;21.60;;;;;;;;;;5018240;28;20018;-80
2022/01/09 13:38:57;;;;;;;32.50;21.55;;;;;;;;;;5024045;28;20026;-79
2022/01/09 13:41:24;;;;;;;36.35;21.85;;;;;;;;;;5023547;28;20119;-79
2022/01/09 13:43:50;;;;;;;31.80;19.73;;;;;;;;;;5021949;28;20033;-79
2022/01/09 13:46:16;;;;;;;34.67;21.35;;;;;;;;;;5020827;28;20045;-79
2022/01/09 13:48:53;;;;;;;33.00;21.92;;;;;;;;;;5020139;28;20030;-80
2022/01/09 13:51:37;;;;;;;31.67;21.48;;;;;;;;;;5019455;28;20022;-79
2022/01/09 13:54:04;;;;;;;30.88;21.02;;;;;;;;;;5019668;28;20081;-79
2022/01/09 13:56:30;;;;;;;33.72;20.30;;;;;;;;;;5019891;28;20606;-79
2022/01/09 13:58:57;;;;;;;32.70;20.80;;;;;;;;;;5020947;28;20053;-79
2022/01/09 14:01:43;;;;;;;28.42;19.40;;;;;;;;;;5019965;28;20037;-80
2022/01/09 14:04:19;;;;;;;31.30;19.83;;;;;;;;;;5019560;28;20036;-80
2022/01/09 14:06:55;;;;;;;32.42;19.70;;;;;;;;;;5018878;28;20018;-80
2022/01/09 14:09:25;;;;;;;30.58;19.55;;;;;;;;;;5019074;28;20033;-79
2022/01/09 14:11:58;;;;;;;31.70;19.92;;;;;;;;;;5019694;28;20029;-81
2022/01/09 14:14:29;;;;;;;31.90;21.45;;;;;;;;;;5019084;28;20057;-80
2022/01/09 14:16:55;;;;;;;32.35;20.60;;;;;;;;;;5018968;28;20022;-79
2022/01/09 14:19:21;;;;;;;30.17;19.95;;;;;;;;;;5018612;28;20072;-79
2022/01/09 14:21:54;;;;;;;36.97;22.35;;;;;;;;;;5022098;28;20241;-80
2022/01/09 14:24:21;;;;;;;31.77;19.85;;;;;;;;;;5021649;28;20025;-80